AirNav   Air Wisconsin Up To $57,000 Bonus
 
 1064 users online  

63CN Meadowlark Field Airport
Livermore, California, USA

GOING TO LIVERMORE?


FAA INFORMATION EFFECTIVE 05 DECEMBER 2019

Location

FAA Identifier: 63CN
Lat/Long: 37-39-40.7500N 121-41-36.8230W
37-39.679167N 121-41.613717W
37.6613194,-121.6935619
(estimated)
Elevation: 730 ft. / 223 m (estimated)
Variation: 16E (1985)
From city: 4 miles SE of LIVERMORE, CA
Time zone: UTC -8 (UTC -7 during Daylight Saving Time)
Zip code: 94550

Airport Operations

Airport use: Private use. Permission required prior to landing
Activation date: 05/1962
Control tower: no
ARTCC: OAKLAND CENTER
FSS: OAKLAND FLIGHT SERVICE STATION
Attendance: 0800-1800
Wind indicator: yes
Segmented circle: yes

Airport Communications

WX ASOS at LVK (6 nm W): PHONE 925-606-5412
WX AWOS-3 at C83 (11 nm N): 123.775 (925-634-0906)
WX AWOS-3 at TCY (12 nm E): 118.375 (209-831-4335)
  • MULTICOM 122.75

Nearby radio navigation aids

VOR radial/distance  VOR name  Freq  Var
SJCr019/20.9SAN JOSE VOR/DME114.1016E
OAKr082/25.5OAKLAND VOR/DME116.8017E
CCRr127/28.4CONCORD VOR/DME117.0017E
OSIr043/32.3WOODSIDE VOR/DME113.9017E
SFOr069/32.4SAN FRANCISCO VOR/DME115.8017E
MODr256/35.0MODESTO VOR/DME114.6017E

Airport Services

Airframe service: NONE
Powerplant service: NONE

Runway Information

Runway 7/25

Dimensions: 1860 x 25 ft. / 567 x 8 m
Surface: gravel/treated
RUNWAY 7  RUNWAY 25
Traffic pattern: rightleft
Obstructions: plinetree

Airport Ownership and Management from official FAA records

Ownership: Privately-owned
Owner: MARK MULLEN
4300 GREENVILLE RD
LIVERMORE, CA 94550
Phone 925-606-1536
Manager: KATE MULLEN
4300 GREENVILLE ROAD
LIVERMORE, CA 94550
Phone 925-606-1536

Airport Operational Statistics

Aircraft based on the field: 4
Single engine airplanes: 3
Ultralights: 1
    
Aircraft operations: 60/year
100% local general aviation

Additional Remarks

FOR CD CTC NORCAL APCH AT 916-361-0516.

Instrument Procedures

There are no published instrument procedures at 63CN.

Some nearby airports with instrument procedures:

KLVK - Livermore Municipal Airport (6 nm W)
C83 - Byron Airport (11 nm N)
KTCY - Tracy Municipal Airport (12 nm E)
KHWD - Hayward Executive Airport (20 nm W)
KRHV - Reid-Hillview Airport of Santa Clara County (21 nm S)
 
Loc | Ops | Rwys | IFR | FBO | Links
Com | Nav | Svcs | Stats | Notes
Area around 63CN (Meadowlark Field Airport)
 
Road maps at: MapQuest Bing Google
 
Aerial photo
WARNING: Photo may not be current or correct
Aerial photo of 63CN (Meadowlark Field Airport)
Photo by www.inflightcamera.com
Photo taken 23-Jun-2006

Do you have a better or more recent aerial photo of Meadowlark Field Airport that you would like to share? If so, please send us your photo.

 
Sectional chart

 
Airport distance calculator
Flying to Meadowlark Field Airport? Find the distance to fly.

From to 63CN

Sunrise and sunset
Times for 09-Dec-2019
 Local
(UTC-8)
 Zulu
(UTC)
Morning civil twilight06:4214:42
Sunrise07:1115:11
Sunset16:4700:47
Evening civil twilight17:1601:16

Current date and time
Zulu (UTC)  09-Dec-2019 23:52:18
Local (UTC-8)  09-Dec-2019 15:52:18
 
METAR
KLVK 
6nm W 
092253Z 00000KT 10SM SCT011 13/09 A3015 RMK AO2 SLP210 T01280094
KC83 
11nm N 
092335Z AUTO 06003KT 10SM CLR 16/10 A3016 RMK AO2
KTCY 
12nm E 
092330Z AUTO 00000KT 10SM CLR 15/11 A3016 RMK A01
TAF
KLVK 
6nm W 
092201Z 0922/1018 30005KT P6SM BKN010 FM100400 VRB04KT P6SM BKN008 FM100800 VRB03KT 1SM BR OVC004 TEMPO 1009/1013 1/4SM FG VV002 FM101300 VRB03KT 1/4SM FG VV002
NOTAMs
Click for the latest NOTAMs
NOTAMs are issued by the DoD/FAA and will open in a separate window not controlled by AirNav.

 

 
 

Would you like to see your business listed on this page?

 If your business provides an interesting product or service to pilots, flight crews, aircraft, or users of the Meadowlark Field Airport, you should consider listing it here.  To start the listing process, click on the button below
 
Add a business
 

Other Pages about Meadowlark Field Airport

Update a link
 
Copyright © AirNav, LLC. All rights reserved. Privacy Policy  Contact